sensor_id;sensor_type;location;lat;lon;timestamp;P1;durP1;ratioP1;P2;durP2;ratioP2
15480;SDS011;7842;50.904;6.670;2023-04-10T00:01:32;13.90;;;11.60;;
15480;SDS011;7842;50.904;6.670;2023-04-10T00:04:00;14.52;;;11.85;;
15480;SDS011;7842;50.904;6.670;2023-04-10T00:06:26;13.90;;;11.50;;
15480;SDS011;7842;50.904;6.670;2023-04-10T00:08:52;13.37;;;11.53;;
15480;SDS011;7842;50.904;6.670;2023-04-10T00:11:18;13.27;;;11.20;;
15480;SDS011;7842;50.904;6.670;2023-04-10T00:13:44;13.07;;;11.07;;
15480;SDS011;7842;50.904;6.670;2023-04-10T00:16:09;13.80;;;11.53;;
15480;SDS011;7842;50.904;6.670;2023-04-10T00:18:35;13.10;;;11.07;;
15480;SDS011;7842;50.904;6.670;2023-04-10T00:21:04;13.77;;;11.50;;
15480;SDS011;7842;50.904;6.670;2023-04-10T00:23:30;13.67;;;11.50;;
15480;SDS011;7842;50.904;6.670;2023-04-10T00:25:59;13.57;;;11.23;;
15480;SDS011;7842;50.904;6.670;2023-04-10T00:28:25;14.07;;;11.43;;
15480;SDS011;7842;50.904;6.670;2023-04-10T00:30:51;12.75;;;10.70;;
15480;SDS011;7842;50.904;6.670;2023-04-10T00:33:16;12.30;;;10.57;;
15480;SDS011;7842;50.904;6.670;2023-04-10T00:35:42;12.93;;;10.97;;
15480;SDS011;7842;50.904;6.670;2023-04-10T00:38:08;14.05;;;10.60;;
15480;SDS011;7842;50.904;6.670;2023-04-10T00:40:33;13.68;;;11.13;;
15480;SDS011;7842;50.904;6.670;2023-04-10T00:42:59;12.55;;;11.18;;
15480;SDS011;7842;50.904;6.670;2023-04-10T00:45:25;12.40;;;10.80;;
15480;SDS011;7842;50.904;6.670;2023-04-10T00:47:53;13.05;;;10.77;;
15480;SDS011;7842;50.904;6.670;2023-04-10T00:50:19;12.75;;;10.30;;
15480;SDS011;7842;50.904;6.670;2023-04-10T00:52:46;13.17;;;11.17;;
15480;SDS011;7842;50.904;6.670;2023-04-10T00:55:12;13.30;;;10.80;;
15480;SDS011;7842;50.904;6.670;2023-04-10T00:57:39;13.95;;;11.23;;
15480;SDS011;7842;50.904;6.670;2023-04-10T01:00:10;12.95;;;10.80;;
15480;SDS011;7842;50.904;6.670;2023-04-10T01:02:37;14.38;;;10.98;;
15480;SDS011;7842;50.904;6.670;2023-04-10T01:05:02;13.03;;;10.70;;
15480;SDS011;7842;50.904;6.670;2023-04-10T01:10:43;12.10;;;10.65;;
15480;SDS011;7842;50.904;6.670;2023-04-10T01:13:16;13.52;;;11.07;;
15480;SDS011;7842;50.904;6.670;2023-04-10T01:18:47;12.82;;;10.82;;
15480;SDS011;7842;50.904;6.670;2023-04-10T01:21:20;11.68;;;10.07;;
15480;SDS011;7842;50.904;6.670;2023-04-10T01:24:00;11.52;;;9.75;;
15480;SDS011;7842;50.904;6.670;2023-04-10T01:29:44;12.10;;;9.80;;
15480;SDS011;7842;50.904;6.670;2023-04-10T01:32:15;12.23;;;9.67;;
15480;SDS011;7842;50.904;6.670;2023-04-10T01:34:45;10.93;;;9.43;;
15480;SDS011;7842;50.904;6.670;2023-04-10T01:37:21;12.27;;;9.63;;
15480;SDS011;7842;50.904;6.670;2023-04-10T01:39:52;11.50;;;9.48;;
15480;SDS011;7842;50.904;6.670;2023-04-10T01:42:23;11.27;;;9.50;;
15480;SDS011;7842;50.904;6.670;2023-04-10T01:44:50;11.02;;;9.00;;
15480;SDS011;7842;50.904;6.670;2023-04-10T01:47:18;11.55;;;9.57;;
15480;SDS011;7842;50.904;6.670;2023-04-10T01:49:46;12.07;;;9.70;;
15480;SDS011;7842;50.904;6.670;2023-04-10T01:52:13;11.43;;;9.73;;
15480;SDS011;7842;50.904;6.670;2023-04-10T01:54:39;12.02;;;9.90;;
15480;SDS011;7842;50.904;6.670;2023-04-10T01:57:07;10.82;;;9.27;;
15480;SDS011;7842;50.904;6.670;2023-04-10T01:59:35;11.43;;;9.82;;
15480;SDS011;7842;50.904;6.670;2023-04-10T02:02:02;11.60;;;9.68;;
15480;SDS011;7842;50.904;6.670;2023-04-10T02:04:28;10.68;;;9.40;;
15480;SDS011;7842;50.904;6.670;2023-04-10T02:13:05;11.40;;;9.82;;
15480;SDS011;7842;50.904;6.670;2023-04-10T02:15:18;11.05;;;9.80;;
15480;SDS011;7842;50.904;6.670;2023-04-10T02:17:45;10.25;;;9.15;;
15480;SDS011;7842;50.904;6.670;2023-04-10T02:20:12;11.88;;;9.77;;
15480;SDS011;7842;50.904;6.670;2023-04-10T02:22:39;12.27;;;9.80;;
15480;SDS011;7842;50.904;6.670;2023-04-10T02:25:08;11.87;;;10.10;;
15480;SDS011;7842;50.904;6.670;2023-04-10T02:27:34;11.85;;;10.02;;
15480;SDS011;7842;50.904;6.670;2023-04-10T02:30:01;10.75;;;9.57;;
15480;SDS011;7842;50.904;6.670;2023-04-10T02:32:27;11.52;;;10.32;;
15480;SDS011;7842;50.904;6.670;2023-04-10T02:34:54;12.32;;;10.63;;
15480;SDS011;7842;50.904;6.670;2023-04-10T02:37:20;11.77;;;10.32;;
15480;SDS011;7842;50.904;6.670;2023-04-10T02:39:47;12.77;;;10.43;;
15480;SDS011;7842;50.904;6.670;2023-04-10T02:42:12;12.65;;;10.40;;
15480;SDS011;7842;50.904;6.670;2023-04-10T02:44:38;12.32;;;10.30;;
15480;SDS011;7842;50.904;6.670;2023-04-10T02:47:04;12.50;;;10.32;;
15480;SDS011;7842;50.904;6.670;2023-04-10T02:49:31;11.57;;;10.23;;
15480;SDS011;7842;50.904;6.670;2023-04-10T02:51:59;12.13;;;10.40;;
15480;SDS011;7842;50.904;6.670;2023-04-10T02:54:25;11.82;;;10.52;;
15480;SDS011;7842;50.904;6.670;2023-04-10T02:56:51;12.05;;;10.07;;
15480;SDS011;7842;50.904;6.670;2023-04-10T02:59:17;14.00;;;10.63;;
15480;SDS011;7842;50.904;6.670;2023-04-10T03:01:44;11.98;;;10.23;;
15480;SDS011;7842;50.904;6.670;2023-04-10T03:04:10;12.90;;;10.75;;
15480;SDS011;7842;50.904;6.670;2023-04-10T03:06:35;13.33;;;10.93;;
15480;SDS011;7842;50.904;6.670;2023-04-10T03:09:01;13.47;;;10.97;;
15480;SDS011;7842;50.904;6.670;2023-04-10T03:11:27;13.10;;;11.03;;
15480;SDS011;7842;50.904;6.670;2023-04-10T03:13:52;14.70;;;11.10;;
15480;SDS011;7842;50.904;6.670;2023-04-10T03:16:18;13.18;;;11.00;;
15480;SDS011;7842;50.904;6.670;2023-04-10T03:18:44;13.47;;;11.57;;
15480;SDS011;7842;50.904;6.670;2023-04-10T03:21:10;13.30;;;11.48;;
15480;SDS011;7842;50.904;6.670;2023-04-10T03:23:36;13.07;;;11.25;;
15480;SDS011;7842;50.904;6.670;2023-04-10T03:26:01;13.80;;;11.50;;
15480;SDS011;7842;50.904;6.670;2023-04-10T03:28:28;13.80;;;11.50;;
15480;SDS011;7842;50.904;6.670;2023-04-10T03:30:55;13.90;;;11.80;;
15480;SDS011;7842;50.904;6.670;2023-04-10T03:33:21;13.82;;;11.57;;
15480;SDS011;7842;50.904;6.670;2023-04-10T03:35:46;13.65;;;11.48;;
15480;SDS011;7842;50.904;6.670;2023-04-10T03:38:12;14.53;;;12.23;;
15480;SDS011;7842;50.904;6.670;2023-04-10T03:40:38;13.52;;;11.43;;
15480;SDS011;7842;50.904;6.670;2023-04-10T03:43:04;13.10;;;11.50;;
15480;SDS011;7842;50.904;6.670;2023-04-10T03:45:30;15.38;;;12.52;;
15480;SDS011;7842;50.904;6.670;2023-04-10T03:47:55;13.88;;;11.85;;
15480;SDS011;7842;50.904;6.670;2023-04-10T03:50:21;13.83;;;12.00;;
15480;SDS011;7842;50.904;6.670;2023-04-10T03:52:46;13.87;;;11.90;;
15480;SDS011;7842;50.904;6.670;2023-04-10T03:55:13;15.18;;;12.40;;
15480;SDS011;7842;50.904;6.670;2023-04-10T03:57:43;13.75;;;11.82;;
15480;SDS011;7842;50.904;6.670;2023-04-10T04:00:10;14.95;;;12.43;;
15480;SDS011;7842;50.904;6.670;2023-04-10T04:02:40;14.95;;;12.07;;
15480;SDS011;7842;50.904;6.670;2023-04-10T04:05:07;15.52;;;12.25;;
15480;SDS011;7842;50.904;6.670;2023-04-10T04:07:33;14.93;;;11.88;;
15480;SDS011;7842;50.904;6.670;2023-04-10T04:09:58;14.07;;;11.95;;
15480;SDS011;7842;50.904;6.670;2023-04-10T04:12:25;14.57;;;12.00;;
15480;SDS011;7842;50.904;6.670;2023-04-10T04:14:51;14.82;;;12.80;;
15480;SDS011;7842;50.904;6.670;2023-04-10T04:17:16;14.85;;;12.02;;
15480;SDS011;7842;50.904;6.670;2023-04-10T04:19:45;15.43;;;12.30;;
15480;SDS011;7842;50.904;6.670;2023-04-10T04:22:11;14.43;;;11.83;;
15480;SDS011;7842;50.904;6.670;2023-04-10T04:24:36;14.77;;;12.30;;
15480;SDS011;7842;50.904;6.670;2023-04-10T04:27:02;15.03;;;12.20;;
15480;SDS011;7842;50.904;6.670;2023-04-10T04:29:28;14.47;;;12.03;;
15480;SDS011;7842;50.904;6.670;2023-04-10T04:31:53;16.83;;;13.03;;
15480;SDS011;7842;50.904;6.670;2023-04-10T04:34:19;18.73;;;13.53;;
15480;SDS011;7842;50.904;6.670;2023-04-10T04:36:45;21.27;;;14.40;;
15480;SDS011;7842;50.904;6.670;2023-04-10T04:39:10;16.87;;;13.33;;
15480;SDS011;7842;50.904;6.670;2023-04-10T04:41:36;15.73;;;12.70;;
15480;SDS011;7842;50.904;6.670;2023-04-10T04:44:01;15.00;;;12.27;;
15480;SDS011;7842;50.904;6.670;2023-04-10T04:46:28;14.57;;;12.27;;
15480;SDS011;7842;50.904;6.670;2023-04-10T04:48:54;15.02;;;11.80;;
15480;SDS011;7842;50.904;6.670;2023-04-10T04:51:20;15.35;;;12.52;;
15480;SDS011;7842;50.904;6.670;2023-04-10T04:53:45;15.93;;;12.40;;
15480;SDS011;7842;50.904;6.670;2023-04-10T04:56:11;15.70;;;12.57;;
15480;SDS011;7842;50.904;6.670;2023-04-10T04:58:36;14.47;;;12.00;;
15480;SDS011;7842;50.904;6.670;2023-04-10T05:01:02;14.80;;;12.57;;
15480;SDS011;7842;50.904;6.670;2023-04-10T05:03:28;15.90;;;12.57;;
15480;SDS011;7842;50.904;6.670;2023-04-10T05:05:54;14.73;;;12.30;;
15480;SDS011;7842;50.904;6.670;2023-04-10T05:08:19;14.30;;;12.10;;
15480;SDS011;7842;50.904;6.670;2023-04-10T05:10:45;14.93;;;11.73;;
15480;SDS011;7842;50.904;6.670;2023-04-10T05:13:11;14.80;;;12.07;;
15480;SDS011;7842;50.904;6.670;2023-04-10T05:15:37;14.47;;;12.20;;
15480;SDS011;7842;50.904;6.670;2023-04-10T05:18:03;15.02;;;12.38;;
15480;SDS011;7842;50.904;6.670;2023-04-10T05:20:29;14.30;;;12.50;;
15480;SDS011;7842;50.904;6.670;2023-04-10T05:22:55;15.10;;;12.32;;
15480;SDS011;7842;50.904;6.670;2023-04-10T05:25:22;14.93;;;12.90;;
15480;SDS011;7842;50.904;6.670;2023-04-10T05:27:47;13.53;;;11.70;;
15480;SDS011;7842;50.904;6.670;2023-04-10T05:30:13;13.73;;;11.67;;
15480;SDS011;7842;50.904;6.670;2023-04-10T05:32:39;14.53;;;12.10;;
15480;SDS011;7842;50.904;6.670;2023-04-10T05:35:05;14.40;;;12.03;;
15480;SDS011;7842;50.904;6.670;2023-04-10T05:37:31;15.15;;;12.25;;
15480;SDS011;7842;50.904;6.670;2023-04-10T05:39:57;15.20;;;11.73;;
15480;SDS011;7842;50.904;6.670;2023-04-10T05:42:23;14.00;;;11.95;;
15480;SDS011;7842;50.904;6.670;2023-04-10T05:44:49;13.20;;;11.20;;
15480;SDS011;7842;50.904;6.670;2023-04-10T05:47:15;12.83;;;11.23;;
15480;SDS011;7842;50.904;6.670;2023-04-10T05:49:41;13.13;;;10.97;;
15480;SDS011;7842;50.904;6.670;2023-04-10T05:52:06;13.13;;;10.70;;
15480;SDS011;7842;50.904;6.670;2023-04-10T05:54:32;12.73;;;10.20;;
15480;SDS011;7842;50.904;6.670;2023-04-10T05:56:58;12.80;;;10.40;;
15480;SDS011;7842;50.904;6.670;2023-04-10T05:59:23;12.80;;;11.10;;
15480;SDS011;7842;50.904;6.670;2023-04-10T06:01:49;12.43;;;10.90;;
15480;SDS011;7842;50.904;6.670;2023-04-10T06:04:14;13.70;;;11.33;;
15480;SDS011;7842;50.904;6.670;2023-04-10T06:06:40;12.80;;;10.90;;
15480;SDS011;7842;50.904;6.670;2023-04-10T06:09:06;13.48;;;11.13;;
15480;SDS011;7842;50.904;6.670;2023-04-10T06:11:31;13.23;;;10.93;;
15480;SDS011;7842;50.904;6.670;2023-04-10T06:13:57;13.25;;;10.80;;
15480;SDS011;7842;50.904;6.670;2023-04-10T06:16:23;12.90;;;11.10;;
15480;SDS011;7842;50.904;6.670;2023-04-10T06:18:48;13.77;;;11.03;;
15480;SDS011;7842;50.904;6.670;2023-04-10T06:21:16;14.25;;;11.52;;
15480;SDS011;7842;50.904;6.670;2023-04-10T06:23:42;13.15;;;10.95;;
15480;SDS011;7842;50.904;6.670;2023-04-10T06:26:07;12.27;;;10.35;;
15480;SDS011;7842;50.904;6.670;2023-04-10T06:28:33;12.30;;;10.35;;
15480;SDS011;7842;50.904;6.670;2023-04-10T06:30:59;12.05;;;10.30;;
15480;SDS011;7842;50.904;6.670;2023-04-10T06:33:27;12.00;;;10.20;;
15480;SDS011;7842;50.904;6.670;2023-04-10T06:35:53;11.68;;;10.02;;
15480;SDS011;7842;50.904;6.670;2023-04-10T06:38:18;13.02;;;10.30;;
15480;SDS011;7842;50.904;6.670;2023-04-10T06:40:44;11.80;;;9.82;;
15480;SDS011;7842;50.904;6.670;2023-04-10T06:43:09;12.60;;;10.30;;
15480;SDS011;7842;50.904;6.670;2023-04-10T06:45:35;12.03;;;10.20;;
15480;SDS011;7842;50.904;6.670;2023-04-10T06:48:01;12.20;;;9.77;;
15480;SDS011;7842;50.904;6.670;2023-04-10T06:50:26;11.63;;;9.68;;
15480;SDS011;7842;50.904;6.670;2023-04-10T06:52:52;11.25;;;9.55;;
15480;SDS011;7842;50.904;6.670;2023-04-10T06:55:20;10.77;;;9.33;;
15480;SDS011;7842;50.904;6.670;2023-04-10T06:57:45;11.88;;;9.68;;
15480;SDS011;7842;50.904;6.670;2023-04-10T07:00:11;10.80;;;8.80;;
15480;SDS011;7842;50.904;6.670;2023-04-10T07:02:37;10.63;;;9.25;;
15480;SDS011;7842;50.904;6.670;2023-04-10T07:05:03;11.17;;;9.10;;
15480;SDS011;7842;50.904;6.670;2023-04-10T07:07:29;10.65;;;9.27;;
15480;SDS011;7842;50.904;6.670;2023-04-10T07:09:55;10.07;;;8.77;;
15480;SDS011;7842;50.904;6.670;2023-04-10T07:12:21;10.30;;;9.02;;
15480;SDS011;7842;50.904;6.670;2023-04-10T07:14:47;10.85;;;9.13;;
15480;SDS011;7842;50.904;6.670;2023-04-10T07:17:13;10.05;;;8.60;;
15480;SDS011;7842;50.904;6.670;2023-04-10T07:19:38;10.30;;;8.53;;
15480;SDS011;7842;50.904;6.670;2023-04-10T07:22:04;10.13;;;8.53;;
15480;SDS011;7842;50.904;6.670;2023-04-10T07:24:33;9.65;;;8.25;;
15480;SDS011;7842;50.904;6.670;2023-04-10T07:26:58;10.40;;;8.32;;
15480;SDS011;7842;50.904;6.670;2023-04-10T07:29:25;12.38;;;7.57;;
15480;SDS011;7842;50.904;6.670;2023-04-10T07:31:51;9.32;;;7.78;;
15480;SDS011;7842;50.904;6.670;2023-04-10T07:34:17;9.27;;;7.95;;
15480;SDS011;7842;50.904;6.670;2023-04-10T07:36:42;9.65;;;8.05;;
15480;SDS011;7842;50.904;6.670;2023-04-10T07:39:11;9.27;;;7.90;;
15480;SDS011;7842;50.904;6.670;2023-04-10T07:41:37;8.60;;;7.70;;
15480;SDS011;7842;50.904;6.670;2023-04-10T07:44:02;8.38;;;7.43;;
15480;SDS011;7842;50.904;6.670;2023-04-10T07:46:28;9.05;;;7.45;;
15480;SDS011;7842;50.904;6.670;2023-04-10T07:48:53;9.03;;;7.60;;
15480;SDS011;7842;50.904;6.670;2023-04-10T07:51:19;8.57;;;7.60;;
15480;SDS011;7842;50.904;6.670;2023-04-10T07:53:45;8.48;;;7.57;;
15480;SDS011;7842;50.904;6.670;2023-04-10T07:56:17;8.23;;;7.37;;
15480;SDS011;7842;50.904;6.670;2023-04-10T07:58:44;7.43;;;6.45;;
15480;SDS011;7842;50.904;6.670;2023-04-10T08:01:11;7.43;;;6.45;;
15480;SDS011;7842;50.904;6.670;2023-04-10T08:03:37;7.00;;;6.30;;
15480;SDS011;7842;50.904;6.670;2023-04-10T08:06:08;6.93;;;5.97;;
15480;SDS011;7842;50.904;6.670;2023-04-10T08:08:35;6.90;;;6.20;;
15480;SDS011;7842;50.904;6.670;2023-04-10T08:11:02;7.65;;;6.03;;
15480;SDS011;7842;50.904;6.670;2023-04-10T08:13:31;7.20;;;6.47;;
15480;SDS011;7842;50.904;6.670;2023-04-10T08:15:57;7.35;;;6.05;;
15480;SDS011;7842;50.904;6.670;2023-04-10T08:18:23;6.87;;;6.00;;
15480;SDS011;7842;50.904;6.670;2023-04-10T08:20:48;6.43;;;5.70;;
15480;SDS011;7842;50.904;6.670;2023-04-10T08:23:14;6.97;;;6.00;;
15480;SDS011;7842;50.904;6.670;2023-04-10T08:25:39;7.25;;;6.50;;
15480;SDS011;7842;50.904;6.670;2023-04-10T08:28:05;6.80;;;5.90;;
15480;SDS011;7842;50.904;6.670;2023-04-10T08:30:31;7.07;;;6.10;;
15480;SDS011;7842;50.904;6.670;2023-04-10T08:32:57;6.80;;;6.05;;
15480;SDS011;7842;50.904;6.670;2023-04-10T08:35:23;7.18;;;6.15;;
15480;SDS011;7842;50.904;6.670;2023-04-10T08:37:49;7.13;;;5.85;;
15480;SDS011;7842;50.904;6.670;2023-04-10T08:40:14;7.30;;;6.13;;
15480;SDS011;7842;50.904;6.670;2023-04-10T08:42:40;6.40;;;5.80;;
15480;SDS011;7842;50.904;6.670;2023-04-10T08:45:06;6.93;;;6.22;;
15480;SDS011;7842;50.904;6.670;2023-04-10T08:47:34;7.30;;;5.68;;
15480;SDS011;7842;50.904;6.670;2023-04-10T08:50:04;7.05;;;5.78;;
15480;SDS011;7842;50.904;6.670;2023-04-10T08:52:32;6.22;;;5.60;;
15480;SDS011;7842;50.904;6.670;2023-04-10T08:55:03;5.90;;;5.25;;
15480;SDS011;7842;50.904;6.670;2023-04-10T08:57:32;7.30;;;6.40;;
15480;SDS011;7842;50.904;6.670;2023-04-10T08:59:58;6.95;;;6.25;;
15480;SDS011;7842;50.904;6.670;2023-04-10T09:02:24;6.45;;;5.80;;
15480;SDS011;7842;50.904;6.670;2023-04-10T09:04:50;6.88;;;5.80;;
15480;SDS011;7842;50.904;6.670;2023-04-10T09:07:18;6.90;;;5.60;;
15480;SDS011;7842;50.904;6.670;2023-04-10T09:09:44;6.35;;;5.68;;
15480;SDS011;7842;50.904;6.670;2023-04-10T09:12:13;6.38;;;5.60;;
15480;SDS011;7842;50.904;6.670;2023-04-10T09:14:40;6.95;;;6.25;;
15480;SDS011;7842;50.904;6.670;2023-04-10T09:17:11;6.78;;;5.80;;
15480;SDS011;7842;50.904;6.670;2023-04-10T09:19:53;6.57;;;5.68;;
15480;SDS011;7842;50.904;6.670;2023-04-10T09:22:29;8.55;;;5.57;;
15480;SDS011;7842;50.904;6.670;2023-04-10T09:24:57;6.50;;;5.40;;
15480;SDS011;7842;50.904;6.670;2023-04-10T09:29:59;6.15;;;5.13;;
15480;SDS011;7842;50.904;6.670;2023-04-10T09:35:21;7.72;;;5.30;;
15480;SDS011;7842;50.904;6.670;2023-04-10T09:37:46;6.45;;;5.05;;
15480;SDS011;7842;50.904;6.670;2023-04-10T09:40:22;5.53;;;4.97;;
15480;SDS011;7842;50.904;6.670;2023-04-10T09:42:49;6.40;;;5.00;;
15480;SDS011;7842;50.904;6.670;2023-04-10T09:45:15;6.13;;;5.07;;
15480;SDS011;7842;50.904;6.670;2023-04-10T09:50:35;5.83;;;4.83;;
15480;SDS011;7842;50.904;6.670;2023-04-10T09:53:01;4.72;;;4.22;;
15480;SDS011;7842;50.904;6.670;2023-04-10T09:55:27;5.37;;;4.40;;
15480;SDS011;7842;50.904;6.670;2023-04-10T09:57:54;5.28;;;4.25;;
15480;SDS011;7842;50.904;6.670;2023-04-10T10:00:20;4.65;;;3.90;;
15480;SDS011;7842;50.904;6.670;2023-04-10T10:02:46;5.37;;;4.30;;
15480;SDS011;7842;50.904;6.670;2023-04-10T10:05:13;5.50;;;4.77;;
15480;SDS011;7842;50.904;6.670;2023-04-10T10:07:39;5.43;;;4.30;;
15480;SDS011;7842;50.904;6.670;2023-04-10T10:10:11;5.05;;;4.38;;
15480;SDS011;7842;50.904;6.670;2023-04-10T10:12:44;5.27;;;4.00;;
15480;SDS011;7842;50.904;6.670;2023-04-10T10:15:23;4.57;;;4.00;;
15480;SDS011;7842;50.904;6.670;2023-04-10T10:20:45;4.80;;;3.88;;
15480;SDS011;7842;50.904;6.670;2023-04-10T10:23:11;5.03;;;3.80;;
15480;SDS011;7842;50.904;6.670;2023-04-10T10:25:41;4.20;;;3.80;;
15480;SDS011;7842;50.904;6.670;2023-04-10T10:28:15;4.03;;;3.53;;
15480;SDS011;7842;50.904;6.670;2023-04-10T10:30:42;4.50;;;3.60;;
15480;SDS011;7842;50.904;6.670;2023-04-10T10:33:09;3.85;;;3.45;;
15480;SDS011;7842;50.904;6.670;2023-04-10T10:35:42;4.10;;;3.65;;
15480;SDS011;7842;50.904;6.670;2023-04-10T10:38:10;4.65;;;3.55;;
15480;SDS011;7842;50.904;6.670;2023-04-10T10:43:41;4.67;;;3.90;;
15480;SDS011;7842;50.904;6.670;2023-04-10T10:46:23;3.80;;;3.30;;
15480;SDS011;7842;50.904;6.670;2023-04-10T10:49:04;3.60;;;3.25;;
15480;SDS011;7842;50.904;6.670;2023-04-10T10:51:43;4.30;;;3.47;;
15480;SDS011;7842;50.904;6.670;2023-04-10T10:54:32;4.05;;;3.38;;
15480;SDS011;7842;50.904;6.670;2023-04-10T10:56:59;3.80;;;3.40;;
15480;SDS011;7842;50.904;6.670;2023-04-10T11:02:13;3.50;;;3.20;;
15480;SDS011;7842;50.904;6.670;2023-04-10T11:04:46;4.53;;;3.15;;
15480;SDS011;7842;50.904;6.670;2023-04-10T11:07:16;3.38;;;3.08;;
15480;SDS011;7842;50.904;6.670;2023-04-10T11:09:43;3.63;;;3.25;;
15480;SDS011;7842;50.904;6.670;2023-04-10T11:12:21;3.67;;;3.05;;
15480;SDS011;7842;50.904;6.670;2023-04-10T11:15:00;3.63;;;3.33;;
15480;SDS011;7842;50.904;6.670;2023-04-10T11:17:50;3.45;;;2.80;;
15480;SDS011;7842;50.904;6.670;2023-04-10T11:20:19;3.35;;;3.00;;
15480;SDS011;7842;50.904;6.670;2023-04-10T11:25:44;3.75;;;2.97;;
15480;SDS011;7842;50.904;6.670;2023-04-10T11:33:42;3.70;;;2.83;;
15480;SDS011;7842;50.904;6.670;2023-04-10T11:36:08;3.40;;;3.00;;
15480;SDS011;7842;50.904;6.670;2023-04-10T11:38:38;3.20;;;2.90;;
15480;SDS011;7842;50.904;6.670;2023-04-10T11:41:03;3.65;;;2.90;;
15480;SDS011;7842;50.904;6.670;2023-04-10T11:43:31;3.45;;;3.10;;
15480;SDS011;7842;50.904;6.670;2023-04-10T11:46:01;3.58;;;3.17;;
15480;SDS011;7842;50.904;6.670;2023-04-10T11:48:28;3.17;;;2.88;;
15480;SDS011;7842;50.904;6.670;2023-04-10T11:50:54;3.30;;;3.00;;
15480;SDS011;7842;50.904;6.670;2023-04-10T11:53:20;2.90;;;2.70;;
15480;SDS011;7842;50.904;6.670;2023-04-10T11:55:46;3.00;;;2.70;;
15480;SDS011;7842;50.904;6.670;2023-04-10T12:00:57;3.23;;;2.57;;
15480;SDS011;7842;50.904;6.670;2023-04-10T12:05:57;2.95;;;2.65;;
15480;SDS011;7842;50.904;6.670;2023-04-10T12:08:29;3.97;;;3.20;;
15480;SDS011;7842;50.904;6.670;2023-04-10T12:10:56;3.88;;;3.08;;
15480;SDS011;7842;50.904;6.670;2023-04-10T12:13:25;3.37;;;2.83;;
15480;SDS011;7842;50.904;6.670;2023-04-10T12:15:56;3.08;;;2.78;;
15480;SDS011;7842;50.904;6.670;2023-04-10T12:18:24;4.13;;;2.72;;
15480;SDS011;7842;50.904;6.670;2023-04-10T12:20:52;3.25;;;2.90;;
15480;SDS011;7842;50.904;6.670;2023-04-10T12:23:20;3.58;;;2.65;;
15480;SDS011;7842;50.904;6.670;2023-04-10T12:25:47;3.38;;;2.88;;
15480;SDS011;7842;50.904;6.670;2023-04-10T12:28:17;3.33;;;3.03;;
15480;SDS011;7842;50.904;6.670;2023-04-10T12:30:50;3.10;;;2.75;;
15480;SDS011;7842;50.904;6.670;2023-04-10T12:33:19;4.18;;;2.75;;
15480;SDS011;7842;50.904;6.670;2023-04-10T12:35:48;2.92;;;2.70;;
15480;SDS011;7842;50.904;6.670;2023-04-10T12:38:14;3.22;;;2.83;;
15480;SDS011;7842;50.904;6.670;2023-04-10T12:43:35;5.35;;;2.80;;
15480;SDS011;7842;50.904;6.670;2023-04-10T12:46:05;2.93;;;2.67;;
15480;SDS011;7842;50.904;6.670;2023-04-10T12:48:32;2.80;;;2.50;;
15480;SDS011;7842;50.904;6.670;2023-04-10T12:50:59;3.30;;;2.70;;
15480;SDS011;7842;50.904;6.670;2023-04-10T12:53:28;2.93;;;2.63;;
15480;SDS011;7842;50.904;6.670;2023-04-10T12:56:07;3.00;;;2.70;;
15480;SDS011;7842;50.904;6.670;2023-04-10T12:58:35;3.60;;;2.63;;
15480;SDS011;7842;50.904;6.670;2023-04-10T13:01:02;2.60;;;2.40;;
15480;SDS011;7842;50.904;6.670;2023-04-10T13:03:32;2.70;;;2.40;;
15480;SDS011;7842;50.904;6.670;2023-04-10T13:06:07;3.42;;;2.80;;
15480;SDS011;7842;50.904;6.670;2023-04-10T13:08:35;2.97;;;2.65;;
15480;SDS011;7842;50.904;6.670;2023-04-10T13:11:04;3.00;;;2.70;;
15480;SDS011;7842;50.904;6.670;2023-04-10T13:13:31;2.70;;;2.50;;
15480;SDS011;7842;50.904;6.670;2023-04-10T13:15:57;3.03;;;2.50;;
15480;SDS011;7842;50.904;6.670;2023-04-10T13:18:23;2.70;;;2.50;;
15480;SDS011;7842;50.904;6.670;2023-04-10T13:20:49;3.00;;;2.70;;
15480;SDS011;7842;50.904;6.670;2023-04-10T13:23:18;2.97;;;2.67;;
15480;SDS011;7842;50.904;6.670;2023-04-10T13:25:47;2.95;;;2.65;;
15480;SDS011;7842;50.904;6.670;2023-04-10T13:28:13;3.53;;;2.72;;
15480;SDS011;7842;50.904;6.670;2023-04-10T13:30:40;2.70;;;2.50;;
15480;SDS011;7842;50.904;6.670;2023-04-10T13:33:08;3.45;;;2.90;;
15480;SDS011;7842;50.904;6.670;2023-04-10T13:35:34;3.70;;;2.90;;
15480;SDS011;7842;50.904;6.670;2023-04-10T13:38:02;2.70;;;2.50;;
15480;SDS011;7842;50.904;6.670;2023-04-10T13:40:28;2.70;;;2.50;;
15480;SDS011;7842;50.904;6.670;2023-04-10T13:42:54;2.60;;;2.40;;
15480;SDS011;7842;50.904;6.670;2023-04-10T13:45:27;2.42;;;2.22;;
15480;SDS011;7842;50.904;6.670;2023-04-10T13:47:56;2.70;;;2.28;;
15480;SDS011;7842;50.904;6.670;2023-04-10T13:50:21;2.57;;;2.27;;
15480;SDS011;7842;50.904;6.670;2023-04-10T13:52:47;3.30;;;2.45;;
15480;SDS011;7842;50.904;6.670;2023-04-10T13:55:15;2.80;;;2.50;;
15480;SDS011;7842;50.904;6.670;2023-04-10T13:57:42;3.00;;;2.65;;
15480;SDS011;7842;50.904;6.670;2023-04-10T14:00:07;2.47;;;2.28;;
15480;SDS011;7842;50.904;6.670;2023-04-10T14:02:34;3.72;;;2.92;;
15480;SDS011;7842;50.904;6.670;2023-04-10T14:05:03;4.13;;;2.67;;
15480;SDS011;7842;50.904;6.670;2023-04-10T14:07:32;2.93;;;2.60;;
15480;SDS011;7842;50.904;6.670;2023-04-10T14:10:00;3.25;;;2.72;;
15480;SDS011;7842;50.904;6.670;2023-04-10T14:12:26;2.97;;;2.60;;
15480;SDS011;7842;50.904;6.670;2023-04-10T14:14:52;2.83;;;2.57;;
15480;SDS011;7842;50.904;6.670;2023-04-10T14:17:18;2.57;;;2.37;;
15480;SDS011;7842;50.904;6.670;2023-04-10T14:19:43;3.00;;;2.67;;
15480;SDS011;7842;50.904;6.670;2023-04-10T14:22:15;3.85;;;2.55;;
15480;SDS011;7842;50.904;6.670;2023-04-10T14:24:41;2.70;;;2.50;;
15480;SDS011;7842;50.904;6.670;2023-04-10T14:27:07;3.93;;;2.63;;
15480;SDS011;7842;50.904;6.670;2023-04-10T14:29:33;3.40;;;3.00;;
15480;SDS011;7842;50.904;6.670;2023-04-10T14:31:58;3.23;;;2.73;;
15480;SDS011;7842;50.904;6.670;2023-04-10T14:34:24;2.83;;;2.60;;
15480;SDS011;7842;50.904;6.670;2023-04-10T14:36:49;3.45;;;2.95;;
15480;SDS011;7842;50.904;6.670;2023-04-10T14:39:19;3.03;;;2.67;;
15480;SDS011;7842;50.904;6.670;2023-04-10T14:41:46;3.38;;;2.70;;
15480;SDS011;7842;50.904;6.670;2023-04-10T14:44:15;2.67;;;2.47;;
15480;SDS011;7842;50.904;6.670;2023-04-10T14:46:41;2.92;;;2.70;;
15480;SDS011;7842;50.904;6.670;2023-04-10T14:49:06;3.23;;;2.93;;
15480;SDS011;7842;50.904;6.670;2023-04-10T14:51:32;3.30;;;2.80;;
15480;SDS011;7842;50.904;6.670;2023-04-10T14:53:58;3.33;;;3.03;;
15480;SDS011;7842;50.904;6.670;2023-04-10T14:56:24;3.10;;;2.80;;
15480;SDS011;7842;50.904;6.670;2023-04-10T14:58:52;3.10;;;2.80;;
15480;SDS011;7842;50.904;6.670;2023-04-10T15:01:17;3.58;;;2.80;;
15480;SDS011;7842;50.904;6.670;2023-04-10T15:03:46;3.80;;;3.10;;
15480;SDS011;7842;50.904;6.670;2023-04-10T15:06:12;4.50;;;2.80;;
15480;SDS011;7842;50.904;6.670;2023-04-10T15:08:38;3.50;;;3.05;;
15480;SDS011;7842;50.904;6.670;2023-04-10T15:11:04;6.70;;;5.25;;
15480;SDS011;7842;50.904;6.670;2023-04-10T15:13:30;3.50;;;3.00;;
15480;SDS011;7842;50.904;6.670;2023-04-10T15:15:56;6.10;;;3.92;;
15480;SDS011;7842;50.904;6.670;2023-04-10T15:18:23;4.20;;;3.13;;
15480;SDS011;7842;50.904;6.670;2023-04-10T15:20:50;4.18;;;3.10;;
15480;SDS011;7842;50.904;6.670;2023-04-10T15:23:16;3.40;;;3.10;;
15480;SDS011;7842;50.904;6.670;2023-04-10T15:25:42;6.60;;;4.80;;
15480;SDS011;7842;50.904;6.670;2023-04-10T15:28:08;5.20;;;4.13;;
15480;SDS011;7842;50.904;6.670;2023-04-10T15:30:34;4.80;;;3.50;;
15480;SDS011;7842;50.904;6.670;2023-04-10T15:32:59;4.93;;;3.88;;
15480;SDS011;7842;50.904;6.670;2023-04-10T15:35:25;5.17;;;4.50;;
15480;SDS011;7842;50.904;6.670;2023-04-10T15:37:52;4.83;;;4.30;;
15480;SDS011;7842;50.904;6.670;2023-04-10T15:40:18;3.80;;;3.30;;